Latest Weather Observations for Kalumburu

IDW60801

Issued at 6:35 am WST Tuesday 21 October 2014 (issued every 30 minutes, with the page automatically refreshed every 10 minutes)

About weather observations | Map of weather stations | Latest weather observations for WA | Other Formats
Station Details ID: 001019 Name: KALUMBURU Lat: -14.30 Lon: 126.65 Height: 23.0 m
Data from the previous 72 hours. | See also: Recent months at Kalumburu
Date/Time
WST
Temp
°C
App
Temp
°C
Dew
Point
Rel
Hum
%
Delta-T
°C
Wind Press
QNH
hPa
Press
MSL
hPa
Rain
since 9 am
mm
Dir
 
Spd
km/h
Gust
km/h
Spd
kts
Gust
kts
21/06:30am 27.8 30.1 20.6 65 4.7 N 9 13 5 7 1015.2 1015.0 0.0
21/06:00am 25.0 28.0 22.7 87 1.5 N 11 17 6 9 1015.1 1014.9 0.0
21/05:30am 22.1 25.8 20.0 88 1.3 CALM 0 0 0 0 1014.0 1013.8 0.0
21/05:00am 22.2 26.1 20.3 89 1.2 CALM 0 0 0 0 1013.7 1013.5 0.0
21/04:30am 21.9 25.4 19.6 87 1.5 CALM 0 0 0 0 1013.2 1013.0 0.0
21/04:00am 22.4 26.2 20.1 87 1.5 CALM 0 0 0 0 1012.8 1012.6 0.0
21/03:30am 22.6 26.5 20.3 87 1.5 CALM 0 0 0 0 1012.7 1012.5 0.0
21/03:00am 23.3 27.5 21.0 87 1.5 CALM 0 0 0 0 1012.3 1012.1 0.0
21/02:30am 23.0 26.9 20.3 85 1.7 CALM 0 0 0 0 1012.2 1012.0 0.0
21/02:00am 23.4 27.6 20.9 86 1.6 CALM 0 0 0 0 1012.3 1012.1 0.0
21/01:30am 23.5 27.4 20.4 83 2.0 CALM 0 0 0 0 1012.2 1012.0 0.0
21/01:00am 23.6 27.5 20.3 82 2.1 CALM 0 0 0 0 1012.3 1012.1 0.0
21/12:30am 24.0 26.6 20.1 79 2.5 S 6 6 3 3 1012.6 1012.4 0.0
21/12:00am 24.8 29.2 21.3 81 2.3 SW 0 0 0 0 1012.8 1012.6 0.0
 
Date/Time
WST
Temp
°C
App
Temp
°C
Dew
Point
Rel
Hum
%
Delta-T
°C
Wind Press
QNH
hPa
Press
MSL
hPa
Rain
since 9 am
mm
Dir
 
Spd
km/h
Gust
km/h
Spd
kts
Gust
kts
20/11:30pm 25.1 29.4 21.2 79 2.6 CALM 0 0 0 0 1013.1 1012.9 0.0
20/11:00pm 25.7 29.1 21.6 78 2.7 SSW 6 7 3 4 1013.5 1013.3 0.0
20/10:30pm 25.8 29.5 21.5 77 2.9 SSW 4 9 2 5 1013.8 1013.6 0.0
20/10:00pm 25.9 29.6 20.7 73 3.4 WSW 2 6 1 3 1014.0 1013.8 0.0
20/09:30pm 25.9 30.1 20.9 74 3.3 SW 0 0 0 0 1014.0 1013.8 0.0
20/09:00pm 26.9 30.9 20.5 68 4.2 CALM 0 0 0 0 1014.0 1013.8 0.0
20/08:30pm 27.2 31.1 20.3 66 4.5 CALM 0 4 0 2 1014.0 1013.8 0.0
20/08:00pm 28.5 31.1 20.5 62 5.3 NNW 7 11 4 6 1013.9 1013.7 0.0
20/07:30pm 28.6 30.8 20.3 60 5.5 NW 9 13 5 7 1013.6 1013.4 0.0
20/07:00pm 28.9 30.8 20.6 61 5.5 NW 11 20 6 11 1013.4 1013.2 0.0
20/06:30pm 29.2 30.7 20.6 59 5.7 NNW 13 20 7 11 1013.0 1012.8 0.0
20/06:00pm 29.3 30.3 20.2 58 6.0 NNW 15 24 8 13 1012.7 1012.5 0.0
20/05:30pm 29.5 29.8 20.4 58 6.0 N 19 24 10 13 1012.4 1012.2 0.0
20/05:00pm 30.1 29.9 19.8 54 6.8 N 20 32 11 17 1011.8 1011.6 0.0
20/04:30pm 30.9 29.7 18.3 47 8.1 N 22 30 12 16 1011.4 1011.2 0.0
20/04:00pm 31.2 29.6 19.2 48 7.8 N 26 37 14 20 1011.1 1010.9 0.0
20/03:30pm 32.4 30.4 18.2 42 9.2 N 26 35 14 19 1010.8 1010.6 0.0
20/03:00pm 32.4 29.4 16.7 39 9.9 N 28 41 15 22 1010.7 1010.5 0.0
20/02:30pm 34.1 32.3 17.8 38 10.5 N 24 39 13 21 1010.7 1010.5 0.0
20/02:00pm 34.2 32.4 18.7 40 10.2 N 26 37 14 20 1010.5 1010.3 0.0
20/01:30pm 34.8 33.6 18.4 38 10.7 N 22 32 12 17 1010.6 1010.4 0.0
20/01:00pm 34.9 34.1 18.5 38 10.7 NW 20 30 11 16 1011.1 1010.9 0.0
20/12:30pm 34.0 32.9 17.7 38 10.5 NNW 20 28 11 15 1011.9 1011.7 0.0
20/12:00pm 34.5 34.3 18.5 38 10.5 NNW 17 28 9 15 1012.4 1012.2 0.0
20/11:30am 34.3 34.2 18.8 40 10.2 N 17 26 9 14 1013.1 1012.9 0.0
20/11:00am 33.6 33.8 17.7 38 10.2 NNW 13 26 7 14 1013.7 1013.5 0.0
20/10:30am 34.0 34.6 18.5 40 10.1 NNW 13 19 7 10 1014.0 1013.8 0.0
20/10:00am 33.4 34.1 18.0 40 10.0 N 11 15 6 8 1014.5 1014.3 0.0
20/09:30am 32.4 32.9 17.5 41 9.5 N 11 19 6 10 1015.0 1014.8 0.0
20/09:00am 32.2 32.7 18.4 44 8.9 NW 13 20 7 11 1015.5 1015.3 0.0
20/08:30am 30.9 31.8 19.3 50 7.6 NNW 13 22 7 12 1015.7 1015.5 0.0
20/08:00am 30.5 32.2 20.1 53 6.9 NNW 11 17 6 9 1015.9 1015.7 0.0
20/07:30am 29.5 31.4 20.6 58 5.9 N 11 17 6 9 1015.8 1015.6 0.0
20/07:00am 28.6 31.7 21.4 65 4.8 WNW 7 11 4 6 1015.2 1015.0 0.0
20/06:30am 27.5 32.2 22.0 72 3.7 CALM 0 0 0 0 1015.1 1014.9 0.0
20/06:00am 24.1 27.9 21.6 86 1.7 ESE 4 7 2 4 1014.7 1014.5 0.0
20/05:30am 22.1 25.8 20.0 88 1.3 CALM 0 0 0 0 1014.0 1013.8 0.0
20/05:00am 22.1 25.7 19.8 87 1.5 CALM 0 0 0 0 1013.6 1013.4 0.0
20/04:30am 21.8 25.3 19.5 87 1.5 CALM 0 0 0 0 1013.4 1013.2 0.0
20/04:00am 22.4 25.1 20.3 88 1.4 ESE 6 7 3 4 1012.9 1012.7 0.0
20/03:30am 22.1 25.7 19.8 87 1.5 CALM 0 0 0 0 1012.7 1012.5 0.0
20/03:00am 22.3 26.0 20.0 87 1.5 CALM 0 0 0 0 1012.3 1012.1 0.0
20/02:30am 22.5 26.2 19.9 85 1.7 CALM 0 0 0 0 1012.2 1012.0 0.0
20/02:00am 23.0 26.9 20.3 85 1.7 CALM 0 0 0 0 1012.2 1012.0 0.0
20/01:30am 23.0 26.8 20.1 84 1.9 CALM 0 0 0 0 1012.2 1012.0 0.0
20/01:00am 23.5 26.9 20.2 82 2.1 N 2 7 1 4 1012.4 1012.2 0.0
20/12:30am 23.4 27.2 20.1 82 2.1 CALM 0 0 0 0 1012.6 1012.4 0.0
20/12:00am 24.3 27.6 20.8 81 2.3 SSW 4 7 2 4 1012.8 1012.6 0.0
 
Date/Time
WST
Temp
°C
App
Temp
°C
Dew
Point
Rel
Hum
%
Delta-T
°C
Wind Press
QNH
hPa
Press
MSL
hPa
Rain
since 9 am
mm
Dir
 
Spd
km/h
Gust
km/h
Spd
kts
Gust
kts
19/11:30pm 24.5 28.5 20.6 79 2.5 CALM 0 2 0 1 1013.1 1012.9 0.0
19/11:00pm 24.8 28.7 21.1 80 2.4 SW 2 6 1 3 1013.4 1013.2 0.0
19/10:30pm 24.9 28.8 21.2 80 2.4 SSW 2 7 1 4 1013.5 1013.3 0.0
19/10:00pm 25.0 29.0 20.5 76 2.9 CALM 0 0 0 0 1013.9 1013.7 0.0
19/09:30pm 26.5 29.6 21.0 72 3.6 W 6 7 3 4 1014.2 1014.0 0.0
19/09:00pm 27.2 30.3 21.0 69 4.1 W 6 9 3 5 1013.9 1013.7 0.0
19/08:30pm 27.6 30.7 21.4 69 4.1 WNW 7 11 4 6 1013.7 1013.5 0.0
19/08:00pm 27.8 30.5 21.3 67 4.3 NW 9 13 5 7 1013.5 1013.3 0.0
19/07:30pm 28.1 30.3 21.1 65 4.7 NNW 11 15 6 8 1013.3 1013.1 0.0
19/07:00pm 28.3 30.6 21.3 65 4.7 NNW 11 17 6 9 1012.8 1012.6 0.0
19/06:30pm 28.5 30.5 21.5 66 4.7 NNW 13 20 7 11 1012.5 1012.3 0.0
19/06:00pm 28.8 30.2 21.0 62 5.2 NNW 15 19 8 10 1012.1 1011.9 0.0
19/05:30pm 29.1 30.0 20.8 61 5.5 N 17 26 9 14 1011.7 1011.5 0.0
19/05:00pm 29.8 30.0 20.1 56 6.4 N 19 26 10 14 1011.3 1011.1 0.0
19/04:30pm 30.7 30.4 19.1 50 7.6 N 19 24 10 13 1010.9 1010.7 0.0
19/04:00pm 31.5 31.4 18.8 46 8.3 NNW 17 28 9 15 1010.7 1010.5 0.0
19/03:30pm 32.3 31.5 18.1 42 9.2 N 19 28 10 15 1010.6 1010.4 0.0
19/03:00pm 33.4 32.4 18.0 40 10.0 N 20 30 11 16 1010.6 1010.4 0.0
19/02:30pm 34.0 32.9 17.7 38 10.5 N 20 30 11 16 1010.6 1010.4 0.0
19/02:00pm 34.3 32.2 17.1 36 11.0 N 24 33 13 18 1010.6 1010.4 0.0
19/01:30pm 34.5 33.4 17.7 37 10.9 N 20 28 11 15 1010.9 1010.7 0.0
19/01:00pm 34.5 33.4 17.3 36 11.1 NNW 19 28 10 15 1011.0 1010.8 0.0
19/12:30pm 34.4 33.3 17.2 36 11.0 NNW 19 28 10 15 1011.7 1011.5 0.0
19/12:00pm 34.0 32.0 16.4 35 11.2 NW 22 33 12 18 1012.1 1011.9 0.0
19/11:30am 34.4 32.5 15.8 33 11.7 NNW 20 32 11 17 1012.5 1012.3 0.0
19/11:00am 34.9 32.7 10.7 23 14.1 NNE 13 22 7 12 1012.9 1012.7 0.0
19/10:30am 34.5 31.6 11.0 24 13.8 NE 17 28 9 15 1013.3 1013.1 0.0
19/10:00am 34.2 32.1 12.5 27 13.0 N 15 24 8 13 1013.6 1013.4 0.0
19/09:30am 33.9 32.0 11.7 26 13.1 N 13 20 7 11 1013.9 1013.7 0.0
19/09:00am 33.8 33.9 12.7 27 12.7 W 4 9 2 5 1014.1 1013.9 0.0
19/08:30am 31.6 31.2 12.9 32 11.2 WSW 7 11 4 6 1014.5 1014.3 0.0
19/08:00am 30.3 31.2 16.0 42 8.9 SE 6 9 3 5 1014.5 1014.3 0.0
19/07:30am 28.1 29.5 17.9 54 6.5 S 7 13 4 7 1014.2 1014.0 0.0
19/07:00am 26.6 29.0 19.7 66 4.5 S 6 9 3 5 1014.0 1013.8 0.0
19/06:30am 24.8 28.7 20.3 76 2.9 CALM 0 0 0 0 1013.9 1013.7 0.0
19/06:00am 21.7 25.3 19.8 89 1.2 CALM 0 0 0 0 1013.5 1013.3 0.0
19/05:30am 19.7 22.4 17.7 88 1.2 CALM 0 0 0 0 1013.2 1013.0 0.0
19/05:00am 20.4 22.3 18.5 89 1.2 NW 6 6 3 3 1012.9 1012.7 0.0
19/04:30am 20.3 22.1 18.4 89 1.2 N 6 7 3 4 1012.5 1012.3 0.0
19/04:00am 20.4 23.4 18.5 89 1.2 CALM 0 0 0 0 1012.1 1011.9 0.0
19/03:30am 20.3 23.3 18.4 89 1.2 CALM 0 0 0 0 1011.9 1011.7 0.0
19/03:00am 20.0 22.9 18.1 89 1.2 CALM 0 0 0 0 1011.6 1011.4 0.0
19/02:30am 20.5 22.3 18.4 88 1.3 S 6 7 3 4 1011.5 1011.3 0.0
19/02:00am 20.6 23.6 18.5 88 1.3 CALM 0 0 0 0 1011.4 1011.2 0.0
19/01:30am 20.4 23.3 18.3 88 1.3 CALM 0 0 0 0 1011.5 1011.3 0.0
19/01:00am 20.8 23.8 18.4 86 1.5 CALM 0 0 0 0 1011.6 1011.4 0.0
19/12:30am 21.2 24.4 18.8 86 1.5 CALM 0 0 0 0 1011.9 1011.7 0.0
19/12:00am 21.3 24.5 18.9 86 1.5 CALM 0 0 0 0 1012.1 1011.9 0.0
 
Date/Time
WST
Temp
°C
App
Temp
°C
Dew
Point
Rel
Hum
%
Delta-T
°C
Wind Press
QNH
hPa
Press
MSL
hPa
Rain
since 9 am
mm
Dir
 
Spd
km/h
Gust
km/h
Spd
kts
Gust
kts
18/11:30pm 21.7 24.9 18.9 84 1.8 CALM 0 0 0 0 1012.3 1012.1 0.0
18/11:00pm 22.0 25.3 19.0 83 1.9 CALM 0 0 0 0 1012.7 1012.5 0.0
18/10:30pm 22.4 25.6 18.8 80 2.3 CALM 0 0 0 0 1012.9 1012.7 0.0
18/10:00pm 23.8 26.8 20.1 80 2.4 WSW 4 7 2 4 1013.0 1012.8 0.0
18/09:30pm 23.7 25.9 19.2 76 2.9 W 6 6 3 3 1013.3 1013.1 0.0
18/09:00pm 25.8 28.7 19.9 70 3.8 WNW 4 7 2 4 1013.2 1013.0 0.0
18/08:30pm 26.6 29.0 19.7 66 4.5 NW 6 11 3 6 1013.2 1013.0 0.0
18/08:00pm 27.1 29.4 19.9 64 4.7 NNW 7 11 4 6 1013.0 1012.8 0.0
18/07:30pm 27.5 29.4 19.8 63 5.0 NNW 9 13 5 7 1012.9 1012.7 0.0
18/07:00pm 27.8 29.7 19.8 61 5.2 NNW 9 15 5 8 1012.6 1012.4 0.0
18/06:30pm 28.1 29.3 19.9 61 5.4 N 13 20 7 11 1012.2 1012.0 0.0
18/06:00pm 28.4 29.1 19.6 59 5.7 NNW 15 22 8 12 1011.9 1011.7 0.0
18/05:30pm 28.7 28.8 19.1 56 6.2 NNW 17 26 9 14 1011.6 1011.4 0.0
18/05:00pm 29.4 28.5 18.2 51 7.2 NNW 20 28 11 15 1011.2 1011.0 0.0
18/04:30pm 30.5 29.2 16.9 44 8.6 NNW 19 26 10 14 1010.7 1010.5 0.0
18/04:00pm 31.4 29.4 15.0 37 10.1 N 19 30 10 16 1010.2 1010.0 0.0
18/03:30pm 32.2 29.8 14.3 33 10.9 N 20 28 11 15 1010.0 1009.8 0.0
18/03:00pm 32.6 29.8 14.2 32 11.2 N 22 30 12 16 1009.9 1009.7 0.0
18/02:30pm 32.9 30.7 15.0 34 11.1 NNW 20 32 11 17 1009.9 1009.7 0.0
18/02:00pm 33.8 31.4 14.3 31 12.0 N 20 28 11 15 1009.9 1009.7 0.0
18/01:30pm 33.6 30.2 13.6 29 12.1 N 24 33 13 18 1010.1 1009.9 0.0
18/01:00pm 33.8 30.0 14.8 32 11.8 N 28 41 15 22 1010.4 1010.2 0.0
18/12:55pm 33.9 30.2 14.9 32 11.8 N 28 41 15 22 1010.3 1010.1 0.0
18/12:30pm 37.6 34.3 4.5 13 17.8 NNE 11 22 6 12 1010.3 1010.1 0.0
18/12:00pm 37.9 33.2 -2.0 8 19.5 ENE 13 19 7 10 1010.7 1010.5 0.0
18/11:30am 37.1 32.3 -2.6 8 19.1 ENE 13 24 7 13 1011.3 1011.1 0.0
18/11:00am 36.8 30.8 -1.2 9 18.6 NE 20 32 11 17 1012.0 1011.8 0.0
18/10:30am 36.3 31.6 1.2 11 17.8 ESE 15 30 8 16 1012.7 1012.5 0.0
18/10:00am 35.4 31.4 2.8 13 16.9 ESE 13 20 7 11 1013.3 1013.1 0.0
18/09:30am 34.6 30.9 2.2 13 16.5 SSE 11 19 6 10 1013.8 1013.6 0.0
18/09:00am 33.2 31.0 9.3 23 13.6 S 11 15 6 8 1014.3 1014.1 0.0
18/08:30am 32.0 30.4 10.1 26 12.5 SSW 9 15 5 8 1014.5 1014.3 0.0
18/08:00am 30.4 29.9 13.7 36 10.0 S 9 13 5 7 1014.6 1014.4 0.0
18/07:30am 27.8 28.6 16.4 50 7.1 S 7 11 4 6 1014.8 1014.6 0.0
18/07:00am 25.8 27.6 18.2 63 4.8 S 6 9 3 5 1014.7 1014.5 0.0

Other Formats:

Comma delimited format used in spreadsheet applications
http://www.bom.gov.au/fwo/IDW60801/IDW60801.94100.axf

JavaScript Object Notation format (JSON) in row-major order
http://www.bom.gov.au/fwo/IDW60801/IDW60801.94100.json